sensor_id;sensor_type;location;lat;lon;timestamp;P1;durP1;ratioP1;P2;durP2;ratioP2
47337;SDS011;33069;51.970;5.892;2022-11-20T00:01:07;29.52;;;24.65;;
47337;SDS011;33069;51.970;5.892;2022-11-20T00:03:37;35.67;;;28.25;;
47337;SDS011;33069;51.970;5.892;2022-11-20T00:06:05;34.83;;;27.80;;
47337;SDS011;33069;51.970;5.892;2022-11-20T00:08:32;35.03;;;28.05;;
47337;SDS011;33069;51.970;5.892;2022-11-20T00:11:02;35.22;;;27.55;;
47337;SDS011;33069;51.970;5.892;2022-11-20T00:13:37;33.10;;;27.15;;
47337;SDS011;33069;51.970;5.892;2022-11-20T00:16:04;35.30;;;27.77;;
47337;SDS011;33069;51.970;5.892;2022-11-20T00:18:32;32.03;;;26.58;;
47337;SDS011;33069;51.970;5.892;2022-11-20T00:21:02;31.38;;;26.42;;
47337;SDS011;33069;51.970;5.892;2022-11-20T00:23:30;34.58;;;28.40;;
47337;SDS011;33069;51.970;5.892;2022-11-20T00:25:56;34.28;;;26.80;;
47337;SDS011;33069;51.970;5.892;2022-11-20T00:28:26;36.70;;;29.00;;
47337;SDS011;33069;51.970;5.892;2022-11-20T00:30:51;32.63;;;26.92;;
47337;SDS011;33069;51.970;5.892;2022-11-20T00:33:17;33.67;;;26.98;;
47337;SDS011;33069;51.970;5.892;2022-11-20T00:35:43;31.25;;;26.33;;
47337;SDS011;33069;51.970;5.892;2022-11-20T00:38:08;33.58;;;26.40;;
47337;SDS011;33069;51.970;5.892;2022-11-20T00:40:34;34.92;;;27.40;;
47337;SDS011;33069;51.970;5.892;2022-11-20T00:42:59;33.25;;;26.45;;
47337;SDS011;33069;51.970;5.892;2022-11-20T00:45:25;34.15;;;26.70;;
47337;SDS011;33069;51.970;5.892;2022-11-20T00:47:51;32.88;;;26.90;;
47337;SDS011;33069;51.970;5.892;2022-11-20T00:50:17;33.40;;;28.20;;
47337;SDS011;33069;51.970;5.892;2022-11-20T00:52:43;31.75;;;25.83;;
47337;SDS011;33069;51.970;5.892;2022-11-20T00:55:08;38.40;;;28.40;;
47337;SDS011;33069;51.970;5.892;2022-11-20T00:57:34;35.03;;;27.73;;
47337;SDS011;33069;51.970;5.892;2022-11-20T01:00:00;31.80;;;26.10;;
47337;SDS011;33069;51.970;5.892;2022-11-20T01:02:25;31.67;;;26.70;;
47337;SDS011;33069;51.970;5.892;2022-11-20T01:04:51;31.25;;;26.30;;
47337;SDS011;33069;51.970;5.892;2022-11-20T01:07:16;34.83;;;24.38;;
47337;SDS011;33069;51.970;5.892;2022-11-20T01:09:42;25.73;;;22.77;;
47337;SDS011;33069;51.970;5.892;2022-11-20T01:12:08;30.75;;;26.33;;
47337;SDS011;33069;51.970;5.892;2022-11-20T01:14:33;29.60;;;26.08;;
47337;SDS011;33069;51.970;5.892;2022-11-20T01:16:59;30.67;;;25.30;;
47337;SDS011;33069;51.970;5.892;2022-11-20T01:19:25;33.45;;;27.63;;
47337;SDS011;33069;51.970;5.892;2022-11-20T01:21:52;30.83;;;25.80;;
47337;SDS011;33069;51.970;5.892;2022-11-20T01:24:19;31.27;;;26.23;;
47337;SDS011;33069;51.970;5.892;2022-11-20T01:26:47;30.08;;;25.35;;
47337;SDS011;33069;51.970;5.892;2022-11-20T01:29:16;34.10;;;26.42;;
47337;SDS011;33069;51.970;5.892;2022-11-20T01:31:44;32.88;;;26.02;;
47337;SDS011;33069;51.970;5.892;2022-11-20T01:34:11;29.70;;;24.67;;
47337;SDS011;33069;51.970;5.892;2022-11-20T01:36:41;33.20;;;26.52;;
47337;SDS011;33069;51.970;5.892;2022-11-20T01:39:18;30.63;;;26.63;;
47337;SDS011;33069;51.970;5.892;2022-11-20T01:41:46;31.48;;;25.95;;
47337;SDS011;33069;51.970;5.892;2022-11-20T01:47:31;29.33;;;25.10;;
47337;SDS011;33069;51.970;5.892;2022-11-20T01:50:12;34.25;;;27.02;;
47337;SDS011;33069;51.970;5.892;2022-11-20T01:52:50;29.30;;;24.08;;
47337;SDS011;33069;51.970;5.892;2022-11-20T01:55:22;31.00;;;25.98;;
47337;SDS011;33069;51.970;5.892;2022-11-20T01:57:55;31.20;;;26.40;;
47337;SDS011;33069;51.970;5.892;2022-11-20T02:00:21;29.27;;;24.42;;
47337;SDS011;33069;51.970;5.892;2022-11-20T02:02:48;31.98;;;26.13;;
47337;SDS011;33069;51.970;5.892;2022-11-20T02:08:02;33.63;;;26.60;;
47337;SDS011;33069;51.970;5.892;2022-11-20T02:10:30;30.63;;;26.35;;
47337;SDS011;33069;51.970;5.892;2022-11-20T02:12:57;31.40;;;26.00;;
47337;SDS011;33069;51.970;5.892;2022-11-20T02:15:41;35.20;;;26.60;;
47337;SDS011;33069;51.970;5.892;2022-11-20T02:18:07;31.65;;;25.42;;
47337;SDS011;33069;51.970;5.892;2022-11-20T02:20:35;30.42;;;25.63;;
47337;SDS011;33069;51.970;5.892;2022-11-20T02:25:49;32.60;;;25.42;;
47337;SDS011;33069;51.970;5.892;2022-11-20T02:28:16;30.50;;;24.90;;
47337;SDS011;33069;51.970;5.892;2022-11-20T02:30:43;31.15;;;25.98;;
47337;SDS011;33069;51.970;5.892;2022-11-20T02:33:08;33.90;;;26.00;;
47337;SDS011;33069;51.970;5.892;2022-11-20T02:38:00;29.15;;;25.27;;
47337;SDS011;33069;51.970;5.892;2022-11-20T02:40:27;30.60;;;25.15;;
47337;SDS011;33069;51.970;5.892;2022-11-20T02:42:54;31.92;;;25.95;;
47337;SDS011;33069;51.970;5.892;2022-11-20T02:45:21;35.63;;;26.73;;
47337;SDS011;33069;51.970;5.892;2022-11-20T02:47:47;33.25;;;26.70;;
47337;SDS011;33069;51.970;5.892;2022-11-20T02:50:14;37.03;;;27.77;;
47337;SDS011;33069;51.970;5.892;2022-11-20T02:52:40;32.80;;;26.10;;
47337;SDS011;33069;51.970;5.892;2022-11-20T02:55:07;30.80;;;25.35;;
47337;SDS011;33069;51.970;5.892;2022-11-20T02:57:32;30.55;;;24.65;;
47337;SDS011;33069;51.970;5.892;2022-11-20T02:59:59;32.35;;;27.23;;
47337;SDS011;33069;51.970;5.892;2022-11-20T03:02:24;29.92;;;25.98;;
47337;SDS011;33069;51.970;5.892;2022-11-20T03:04:50;30.33;;;25.52;;
47337;SDS011;33069;51.970;5.892;2022-11-20T03:07:16;29.92;;;26.38;;
47337;SDS011;33069;51.970;5.892;2022-11-20T03:09:41;30.85;;;26.73;;
47337;SDS011;33069;51.970;5.892;2022-11-20T03:12:07;32.80;;;26.77;;
47337;SDS011;33069;51.970;5.892;2022-11-20T03:14:34;31.33;;;26.70;;
47337;SDS011;33069;51.970;5.892;2022-11-20T03:16:59;35.17;;;27.10;;
47337;SDS011;33069;51.970;5.892;2022-11-20T03:19:25;34.95;;;28.95;;
47337;SDS011;33069;51.970;5.892;2022-11-20T03:21:51;40.03;;;28.80;;
47337;SDS011;33069;51.970;5.892;2022-11-20T03:24:17;33.13;;;26.08;;
47337;SDS011;33069;51.970;5.892;2022-11-20T03:26:42;31.38;;;25.70;;
47337;SDS011;33069;51.970;5.892;2022-11-20T03:29:08;33.17;;;26.35;;
47337;SDS011;33069;51.970;5.892;2022-11-20T03:31:35;33.95;;;28.38;;
47337;SDS011;33069;51.970;5.892;2022-11-20T03:34:05;29.77;;;25.77;;
47337;SDS011;33069;51.970;5.892;2022-11-20T03:36:31;30.58;;;27.27;;
47337;SDS011;33069;51.970;5.892;2022-11-20T03:38:57;29.73;;;25.27;;
47337;SDS011;33069;51.970;5.892;2022-11-20T03:41:25;29.67;;;25.02;;
47337;SDS011;33069;51.970;5.892;2022-11-20T03:43:53;30.10;;;25.95;;
47337;SDS011;33069;51.970;5.892;2022-11-20T03:46:24;32.63;;;27.00;;
47337;SDS011;33069;51.970;5.892;2022-11-20T03:48:50;38.10;;;28.38;;
47337;SDS011;33069;51.970;5.892;2022-11-20T03:51:18;33.72;;;27.75;;
47337;SDS011;33069;51.970;5.892;2022-11-20T03:53:44;34.38;;;27.33;;
47337;SDS011;33069;51.970;5.892;2022-11-20T03:56:12;31.95;;;25.90;;
47337;SDS011;33069;51.970;5.892;2022-11-20T03:58:39;32.08;;;26.88;;
47337;SDS011;33069;51.970;5.892;2022-11-20T04:01:12;31.83;;;25.33;;
47337;SDS011;33069;51.970;5.892;2022-11-20T04:03:41;34.45;;;26.13;;
47337;SDS011;33069;51.970;5.892;2022-11-20T04:06:08;33.38;;;28.23;;
47337;SDS011;33069;51.970;5.892;2022-11-20T04:08:36;34.65;;;27.60;;
47337;SDS011;33069;51.970;5.892;2022-11-20T04:14:03;36.10;;;27.05;;
47337;SDS011;33069;51.970;5.892;2022-11-20T04:16:31;35.03;;;27.55;;
47337;SDS011;33069;51.970;5.892;2022-11-20T04:18:59;31.95;;;27.90;;
47337;SDS011;33069;51.970;5.892;2022-11-20T04:21:26;32.95;;;25.77;;
47337;SDS011;33069;51.970;5.892;2022-11-20T04:23:52;32.28;;;26.65;;
47337;SDS011;33069;51.970;5.892;2022-11-20T04:26:19;31.92;;;26.55;;
47337;SDS011;33069;51.970;5.892;2022-11-20T04:28:46;33.42;;;27.05;;
47337;SDS011;33069;51.970;5.892;2022-11-20T04:31:13;40.10;;;30.67;;
47337;SDS011;33069;51.970;5.892;2022-11-20T04:33:40;31.73;;;27.15;;
47337;SDS011;33069;51.970;5.892;2022-11-20T04:36:07;34.33;;;28.23;;
47337;SDS011;33069;51.970;5.892;2022-11-20T04:38:52;35.65;;;27.00;;
47337;SDS011;33069;51.970;5.892;2022-11-20T04:41:20;40.33;;;30.10;;
47337;SDS011;33069;51.970;5.892;2022-11-20T04:43:49;39.10;;;29.25;;
47337;SDS011;33069;51.970;5.892;2022-11-20T04:46:16;35.55;;;26.60;;
47337;SDS011;33069;51.970;5.892;2022-11-20T04:48:43;33.97;;;27.30;;
47337;SDS011;33069;51.970;5.892;2022-11-20T04:51:08;32.13;;;28.27;;
47337;SDS011;33069;51.970;5.892;2022-11-20T04:53:34;33.80;;;27.33;;
47337;SDS011;33069;51.970;5.892;2022-11-20T04:56:00;36.05;;;27.92;;
47337;SDS011;33069;51.970;5.892;2022-11-20T04:58:28;32.60;;;27.40;;
47337;SDS011;33069;51.970;5.892;2022-11-20T05:01:00;33.72;;;28.15;;
47337;SDS011;33069;51.970;5.892;2022-11-20T05:03:29;34.92;;;28.00;;
47337;SDS011;33069;51.970;5.892;2022-11-20T05:05:55;37.03;;;29.20;;
47337;SDS011;33069;51.970;5.892;2022-11-20T05:08:21;32.45;;;27.98;;
47337;SDS011;33069;51.970;5.892;2022-11-20T05:10:47;35.10;;;28.48;;
47337;SDS011;33069;51.970;5.892;2022-11-20T05:13:12;38.65;;;28.25;;
47337;SDS011;33069;51.970;5.892;2022-11-20T05:15:38;39.30;;;29.00;;
47337;SDS011;33069;51.970;5.892;2022-11-20T05:18:04;41.67;;;29.02;;
47337;SDS011;33069;51.970;5.892;2022-11-20T05:20:29;36.60;;;27.85;;
47337;SDS011;33069;51.970;5.892;2022-11-20T05:22:58;34.72;;;27.17;;
47337;SDS011;33069;51.970;5.892;2022-11-20T05:25:24;39.58;;;28.70;;
47337;SDS011;33069;51.970;5.892;2022-11-20T05:27:50;33.90;;;26.15;;
47337;SDS011;33069;51.970;5.892;2022-11-20T05:30:16;35.25;;;27.65;;
47337;SDS011;33069;51.970;5.892;2022-11-20T05:32:41;42.20;;;30.25;;
47337;SDS011;33069;51.970;5.892;2022-11-20T05:35:07;44.50;;;28.92;;
47337;SDS011;33069;51.970;5.892;2022-11-20T05:37:33;38.35;;;27.17;;
47337;SDS011;33069;51.970;5.892;2022-11-20T05:39:59;38.78;;;27.58;;
47337;SDS011;33069;51.970;5.892;2022-11-20T05:42:24;37.30;;;28.23;;
47337;SDS011;33069;51.970;5.892;2022-11-20T05:45:00;39.17;;;28.73;;
47337;SDS011;33069;51.970;5.892;2022-11-20T05:47:27;37.05;;;29.23;;
47337;SDS011;33069;51.970;5.892;2022-11-20T05:49:56;40.65;;;28.85;;
47337;SDS011;33069;51.970;5.892;2022-11-20T05:52:22;35.03;;;27.55;;
47337;SDS011;33069;51.970;5.892;2022-11-20T05:54:48;40.80;;;27.95;;
47337;SDS011;33069;51.970;5.892;2022-11-20T05:57:13;38.05;;;26.25;;
47337;SDS011;33069;51.970;5.892;2022-11-20T05:59:39;35.67;;;28.10;;
47337;SDS011;33069;51.970;5.892;2022-11-20T06:02:05;40.47;;;27.13;;
47337;SDS011;33069;51.970;5.892;2022-11-20T06:04:31;37.88;;;28.30;;
47337;SDS011;33069;51.970;5.892;2022-11-20T06:06:56;38.63;;;28.25;;
47337;SDS011;33069;51.970;5.892;2022-11-20T06:09:22;37.05;;;27.10;;
47337;SDS011;33069;51.970;5.892;2022-11-20T06:11:47;36.22;;;26.60;;
47337;SDS011;33069;51.970;5.892;2022-11-20T06:14:13;38.33;;;27.63;;
47337;SDS011;33069;51.970;5.892;2022-11-20T06:16:39;39.45;;;28.08;;
47337;SDS011;33069;51.970;5.892;2022-11-20T06:19:05;34.45;;;27.30;;
47337;SDS011;33069;51.970;5.892;2022-11-20T06:21:30;36.88;;;30.17;;
47337;SDS011;33069;51.970;5.892;2022-11-20T06:23:56;36.75;;;27.50;;
47337;SDS011;33069;51.970;5.892;2022-11-20T06:26:23;36.17;;;26.92;;
47337;SDS011;33069;51.970;5.892;2022-11-20T06:28:51;40.05;;;30.05;;
47337;SDS011;33069;51.970;5.892;2022-11-20T06:31:18;34.88;;;28.00;;
47337;SDS011;33069;51.970;5.892;2022-11-20T06:33:46;38.08;;;28.85;;
47337;SDS011;33069;51.970;5.892;2022-11-20T06:36:14;38.42;;;29.85;;
47337;SDS011;33069;51.970;5.892;2022-11-20T06:38:41;43.00;;;29.17;;
47337;SDS011;33069;51.970;5.892;2022-11-20T06:41:08;38.05;;;29.15;;
47337;SDS011;33069;51.970;5.892;2022-11-20T06:43:36;41.83;;;30.70;;
47337;SDS011;33069;51.970;5.892;2022-11-20T06:46:02;36.38;;;27.20;;
47337;SDS011;33069;51.970;5.892;2022-11-20T06:48:28;38.05;;;27.20;;
47337;SDS011;33069;51.970;5.892;2022-11-20T06:50:55;34.58;;;27.85;;
47337;SDS011;33069;51.970;5.892;2022-11-20T06:53:21;35.17;;;28.00;;
47337;SDS011;33069;51.970;5.892;2022-11-20T06:55:48;39.85;;;29.27;;
47337;SDS011;33069;51.970;5.892;2022-11-20T06:58:14;38.17;;;27.95;;
47337;SDS011;33069;51.970;5.892;2022-11-20T07:00:41;39.05;;;31.10;;
47337;SDS011;33069;51.970;5.892;2022-11-20T07:03:07;36.53;;;29.45;;
47337;SDS011;33069;51.970;5.892;2022-11-20T07:05:34;37.78;;;29.00;;
47337;SDS011;33069;51.970;5.892;2022-11-20T07:08:01;41.50;;;30.88;;
47337;SDS011;33069;51.970;5.892;2022-11-20T07:10:27;37.20;;;29.20;;
47337;SDS011;33069;51.970;5.892;2022-11-20T07:12:53;42.55;;;31.38;;
47337;SDS011;33069;51.970;5.892;2022-11-20T07:15:21;38.22;;;29.75;;
47337;SDS011;33069;51.970;5.892;2022-11-20T07:17:47;38.13;;;29.20;;
47337;SDS011;33069;51.970;5.892;2022-11-20T07:20:13;38.58;;;29.65;;
47337;SDS011;33069;51.970;5.892;2022-11-20T07:22:40;42.55;;;29.63;;
47337;SDS011;33069;51.970;5.892;2022-11-20T07:25:06;39.97;;;29.15;;
47337;SDS011;33069;51.970;5.892;2022-11-20T07:27:33;38.60;;;29.15;;
47337;SDS011;33069;51.970;5.892;2022-11-20T07:29:59;44.30;;;31.85;;
47337;SDS011;33069;51.970;5.892;2022-11-20T07:32:26;41.42;;;29.35;;
47337;SDS011;33069;51.970;5.892;2022-11-20T07:34:52;36.83;;;28.58;;
47337;SDS011;33069;51.970;5.892;2022-11-20T07:37:18;36.85;;;28.48;;
47337;SDS011;33069;51.970;5.892;2022-11-20T07:39:43;36.70;;;29.13;;
47337;SDS011;33069;51.970;5.892;2022-11-20T07:42:09;40.22;;;30.27;;
47337;SDS011;33069;51.970;5.892;2022-11-20T07:44:37;42.58;;;32.10;;
47337;SDS011;33069;51.970;5.892;2022-11-20T07:47:02;39.90;;;30.42;;
47337;SDS011;33069;51.970;5.892;2022-11-20T07:49:28;43.95;;;29.42;;
47337;SDS011;33069;51.970;5.892;2022-11-20T07:51:54;49.78;;;31.88;;
47337;SDS011;33069;51.970;5.892;2022-11-20T07:54:20;41.25;;;30.38;;
47337;SDS011;33069;51.970;5.892;2022-11-20T07:56:46;37.88;;;29.75;;
47337;SDS011;33069;51.970;5.892;2022-11-20T07:59:12;44.85;;;33.28;;
47337;SDS011;33069;51.970;5.892;2022-11-20T08:01:39;40.75;;;31.58;;
47337;SDS011;33069;51.970;5.892;2022-11-20T08:04:05;42.72;;;33.35;;
47337;SDS011;33069;51.970;5.892;2022-11-20T08:06:31;39.88;;;32.22;;
47337;SDS011;33069;51.970;5.892;2022-11-20T08:08:56;41.85;;;32.92;;
47337;SDS011;33069;51.970;5.892;2022-11-20T08:11:22;46.58;;;33.50;;
47337;SDS011;33069;51.970;5.892;2022-11-20T08:14:06;43.38;;;33.35;;
47337;SDS011;33069;51.970;5.892;2022-11-20T08:16:47;41.75;;;33.03;;
47337;SDS011;33069;51.970;5.892;2022-11-20T08:19:14;43.60;;;32.38;;
47337;SDS011;33069;51.970;5.892;2022-11-20T08:21:41;39.40;;;31.65;;
47337;SDS011;33069;51.970;5.892;2022-11-20T08:24:07;46.22;;;33.92;;
47337;SDS011;33069;51.970;5.892;2022-11-20T08:26:35;51.03;;;34.10;;
47337;SDS011;33069;51.970;5.892;2022-11-20T08:29:01;48.95;;;34.72;;
47337;SDS011;33069;51.970;5.892;2022-11-20T08:31:27;47.95;;;34.50;;
47337;SDS011;33069;51.970;5.892;2022-11-20T08:33:54;41.83;;;33.30;;
47337;SDS011;33069;51.970;5.892;2022-11-20T08:36:20;42.70;;;32.92;;
47337;SDS011;33069;51.970;5.892;2022-11-20T08:38:47;43.30;;;33.08;;
47337;SDS011;33069;51.970;5.892;2022-11-20T08:41:17;46.08;;;34.90;;
47337;SDS011;33069;51.970;5.892;2022-11-20T08:43:50;50.03;;;37.08;;
47337;SDS011;33069;51.970;5.892;2022-11-20T08:46:18;44.53;;;35.00;;
47337;SDS011;33069;51.970;5.892;2022-11-20T08:48:44;44.75;;;35.08;;
47337;SDS011;33069;51.970;5.892;2022-11-20T08:51:10;42.13;;;34.25;;
47337;SDS011;33069;51.970;5.892;2022-11-20T08:53:36;48.75;;;37.80;;
47337;SDS011;33069;51.970;5.892;2022-11-20T08:56:02;42.30;;;34.00;;
47337;SDS011;33069;51.970;5.892;2022-11-20T08:58:28;40.95;;;33.92;;
47337;SDS011;33069;51.970;5.892;2022-11-20T09:00:54;48.40;;;37.08;;
47337;SDS011;33069;51.970;5.892;2022-11-20T09:03:20;46.25;;;37.00;;
47337;SDS011;33069;51.970;5.892;2022-11-20T09:05:45;45.60;;;36.58;;
47337;SDS011;33069;51.970;5.892;2022-11-20T09:08:11;43.15;;;35.05;;
47337;SDS011;33069;51.970;5.892;2022-11-20T09:10:37;44.80;;;36.38;;
47337;SDS011;33069;51.970;5.892;2022-11-20T09:13:04;46.55;;;37.65;;
47337;SDS011;33069;51.970;5.892;2022-11-20T09:15:30;42.20;;;35.40;;
47337;SDS011;33069;51.970;5.892;2022-11-20T09:17:58;46.13;;;36.60;;
47337;SDS011;33069;51.970;5.892;2022-11-20T09:20:26;40.85;;;33.55;;
47337;SDS011;33069;51.970;5.892;2022-11-20T09:22:54;46.65;;;36.20;;
47337;SDS011;33069;51.970;5.892;2022-11-20T09:25:20;46.35;;;38.65;;
47337;SDS011;33069;51.970;5.892;2022-11-20T09:27:46;48.70;;;38.35;;
47337;SDS011;33069;51.970;5.892;2022-11-20T09:30:12;47.30;;;37.95;;
47337;SDS011;33069;51.970;5.892;2022-11-20T09:32:39;47.25;;;37.65;;
47337;SDS011;33069;51.970;5.892;2022-11-20T09:35:06;42.65;;;36.22;;
47337;SDS011;33069;51.970;5.892;2022-11-20T09:37:32;47.97;;;37.45;;
47337;SDS011;33069;51.970;5.892;2022-11-20T09:39:58;42.28;;;36.67;;
47337;SDS011;33069;51.970;5.892;2022-11-20T09:42:36;49.85;;;38.83;;
47337;SDS011;33069;51.970;5.892;2022-11-20T09:45:18;47.80;;;38.08;;
47337;SDS011;33069;51.970;5.892;2022-11-20T09:56:46;51.95;;;41.03;;
47337;SDS011;33069;51.970;5.892;2022-11-20T09:59:26;50.60;;;39.10;;
47337;SDS011;33069;51.970;5.892;2022-11-20T10:01:58;50.95;;;40.70;;
47337;SDS011;33069;51.970;5.892;2022-11-20T10:04:25;48.70;;;39.30;;
47337;SDS011;33069;51.970;5.892;2022-11-20T10:09:37;46.78;;;37.08;;
47337;SDS011;33069;51.970;5.892;2022-11-20T10:15:12;47.35;;;37.55;;
47337;SDS011;33069;51.970;5.892;2022-11-20T10:26:20;47.33;;;37.17;;
47337;SDS011;33069;51.970;5.892;2022-11-20T10:29:00;47.95;;;38.53;;
47337;SDS011;33069;51.970;5.892;2022-11-20T10:31:36;45.55;;;37.88;;
47337;SDS011;33069;51.970;5.892;2022-11-20T10:39:43;47.75;;;37.50;;
47337;SDS011;33069;51.970;5.892;2022-11-20T10:42:22;45.53;;;38.35;;
47337;SDS011;33069;51.970;5.892;2022-11-20T10:44:58;43.42;;;38.63;;
47337;SDS011;33069;51.970;5.892;2022-11-20T10:47:35;46.63;;;37.38;;
47337;SDS011;33069;51.970;5.892;2022-11-20T10:50:02;50.38;;;39.17;;
47337;SDS011;33069;51.970;5.892;2022-11-20T10:55:26;48.53;;;37.47;;
47337;SDS011;33069;51.970;5.892;2022-11-20T11:00:37;48.22;;;39.97;;
47337;SDS011;33069;51.970;5.892;2022-11-20T11:03:02;45.95;;;39.22;;
47337;SDS011;33069;51.970;5.892;2022-11-20T11:06:01;45.67;;;40.05;;
47337;SDS011;33069;51.970;5.892;2022-11-20T11:08:37;46.20;;;38.17;;
47337;SDS011;33069;51.970;5.892;2022-11-20T11:11:18;47.05;;;39.38;;
47337;SDS011;33069;51.970;5.892;2022-11-20T11:14:07;50.33;;;39.53;;
47337;SDS011;33069;51.970;5.892;2022-11-20T11:16:40;48.83;;;39.65;;
47337;SDS011;33069;51.970;5.892;2022-11-20T11:19:22;53.42;;;41.28;;
47337;SDS011;33069;51.970;5.892;2022-11-20T11:21:50;49.70;;;40.53;;
47337;SDS011;33069;51.970;5.892;2022-11-20T11:24:22;51.85;;;42.10;;
47337;SDS011;33069;51.970;5.892;2022-11-20T11:26:59;48.28;;;39.83;;
47337;SDS011;33069;51.970;5.892;2022-11-20T11:29:31;45.72;;;36.15;;
47337;SDS011;33069;51.970;5.892;2022-11-20T11:32:08;51.63;;;41.75;;
47337;SDS011;33069;51.970;5.892;2022-11-20T11:34:38;44.60;;;37.80;;
47337;SDS011;33069;51.970;5.892;2022-11-20T11:37:03;50.05;;;39.28;;
47337;SDS011;33069;51.970;5.892;2022-11-20T11:39:31;53.08;;;41.58;;
47337;SDS011;33069;51.970;5.892;2022-11-20T11:41:59;39.53;;;34.33;;
47337;SDS011;33069;51.970;5.892;2022-11-20T11:44:32;49.70;;;40.13;;
47337;SDS011;33069;51.970;5.892;2022-11-20T11:47:25;42.42;;;36.60;;
47337;SDS011;33069;51.970;5.892;2022-11-20T11:52:44;49.90;;;38.90;;
47337;SDS011;33069;51.970;5.892;2022-11-20T11:55:31;48.10;;;38.72;;
47337;SDS011;33069;51.970;5.892;2022-11-20T12:03:36;47.55;;;40.10;;
47337;SDS011;33069;51.970;5.892;2022-11-20T12:06:11;49.20;;;39.05;;
47337;SDS011;33069;51.970;5.892;2022-11-20T12:08:50;43.10;;;38.22;;
47337;SDS011;33069;51.970;5.892;2022-11-20T12:11:31;49.42;;;40.42;;
47337;SDS011;33069;51.970;5.892;2022-11-20T12:14:21;53.63;;;41.67;;
47337;SDS011;33069;51.970;5.892;2022-11-20T12:17:03;50.05;;;40.25;;
47337;SDS011;33069;51.970;5.892;2022-11-20T12:19:30;67.93;;;51.67;;
47337;SDS011;33069;51.970;5.892;2022-11-20T12:24:59;53.90;;;43.65;;
47337;SDS011;33069;51.970;5.892;2022-11-20T12:47:40;52.75;;;41.63;;
47337;SDS011;33069;51.970;5.892;2022-11-20T13:02:11;66.30;;;49.25;;
47337;SDS011;33069;51.970;5.892;2022-11-20T13:05:04;51.80;;;42.80;;
47337;SDS011;33069;51.970;5.892;2022-11-20T13:07:44;52.05;;;40.88;;
47337;SDS011;33069;51.970;5.892;2022-11-20T13:10:16;50.90;;;41.15;;
47337;SDS011;33069;51.970;5.892;2022-11-20T13:12:50;53.15;;;42.15;;
47337;SDS011;33069;51.970;5.892;2022-11-20T13:18:10;57.50;;;42.95;;
47337;SDS011;33069;51.970;5.892;2022-11-20T13:20:44;56.83;;;44.10;;
47337;SDS011;33069;51.970;5.892;2022-11-20T13:23:11;56.50;;;41.95;;
47337;SDS011;33069;51.970;5.892;2022-11-20T13:25:47;54.28;;;41.42;;
47337;SDS011;33069;51.970;5.892;2022-11-20T13:30:53;59.15;;;43.22;;
47337;SDS011;33069;51.970;5.892;2022-11-20T13:33:31;50.42;;;39.13;;
47337;SDS011;33069;51.970;5.892;2022-11-20T13:36:48;56.88;;;42.78;;
47337;SDS011;33069;51.970;5.892;2022-11-20T13:38:51;58.28;;;43.70;;
47337;SDS011;33069;51.970;5.892;2022-11-20T13:41:26;54.22;;;43.45;;
47337;SDS011;33069;51.970;5.892;2022-11-20T13:47:27;54.47;;;44.72;;
47337;SDS011;33069;51.970;5.892;2022-11-20T13:49:55;57.30;;;42.90;;
47337;SDS011;33069;51.970;5.892;2022-11-20T13:55:50;59.00;;;45.67;;
47337;SDS011;33069;51.970;5.892;2022-11-20T14:01:07;65.53;;;46.22;;
47337;SDS011;33069;51.970;5.892;2022-11-20T14:03:33;70.30;;;48.03;;
47337;SDS011;33069;51.970;5.892;2022-11-20T14:06:03;73.47;;;51.40;;
47337;SDS011;33069;51.970;5.892;2022-11-20T14:08:42;77.75;;;52.70;;
47337;SDS011;33069;51.970;5.892;2022-11-20T14:16:20;63.45;;;42.83;;
47337;SDS011;33069;51.970;5.892;2022-11-20T14:18:47;67.50;;;49.42;;
47337;SDS011;33069;51.970;5.892;2022-11-20T14:21:23;65.43;;;46.78;;
47337;SDS011;33069;51.970;5.892;2022-11-20T14:24:17;76.25;;;52.55;;
47337;SDS011;33069;51.970;5.892;2022-11-20T14:26:43;78.20;;;51.42;;
47337;SDS011;33069;51.970;5.892;2022-11-20T14:29:12;86.75;;;55.40;;
47337;SDS011;33069;51.970;5.892;2022-11-20T14:31:43;75.47;;;50.70;;
47337;SDS011;33069;51.970;5.892;2022-11-20T14:34:24;70.35;;;48.55;;
47337;SDS011;33069;51.970;5.892;2022-11-20T14:36:52;77.32;;;52.03;;
47337;SDS011;33069;51.970;5.892;2022-11-20T14:39:29;81.22;;;52.97;;
47337;SDS011;33069;51.970;5.892;2022-11-20T14:42:00;67.75;;;47.05;;
47337;SDS011;33069;51.970;5.892;2022-11-20T14:44:33;82.40;;;56.50;;
47337;SDS011;33069;51.970;5.892;2022-11-20T14:47:00;75.55;;;52.28;;
47337;SDS011;33069;51.970;5.892;2022-11-20T14:49:29;78.07;;;52.35;;
47337;SDS011;33069;51.970;5.892;2022-11-20T14:51:59;81.97;;;52.65;;
47337;SDS011;33069;51.970;5.892;2022-11-20T14:54:27;80.25;;;53.85;;
47337;SDS011;33069;51.970;5.892;2022-11-20T14:59:27;77.47;;;49.40;;
47337;SDS011;33069;51.970;5.892;2022-11-20T15:01:58;91.78;;;56.97;;
47337;SDS011;33069;51.970;5.892;2022-11-20T15:04:24;81.03;;;51.13;;
47337;SDS011;33069;51.970;5.892;2022-11-20T15:06:51;72.70;;;48.88;;
47337;SDS011;33069;51.970;5.892;2022-11-20T15:09:19;86.53;;;55.17;;
47337;SDS011;33069;51.970;5.892;2022-11-20T15:12:18;79.28;;;51.20;;
47337;SDS011;33069;51.970;5.892;2022-11-20T15:14:49;82.82;;;53.33;;
47337;SDS011;33069;51.970;5.892;2022-11-20T15:17:15;78.63;;;51.60;;
47337;SDS011;33069;51.970;5.892;2022-11-20T15:19:40;89.22;;;53.30;;
47337;SDS011;33069;51.970;5.892;2022-11-20T15:22:09;88.05;;;54.28;;
47337;SDS011;33069;51.970;5.892;2022-11-20T15:24:41;74.15;;;47.95;;
47337;SDS011;33069;51.970;5.892;2022-11-20T15:27:08;87.28;;;55.85;;
47337;SDS011;33069;51.970;5.892;2022-11-20T15:29:34;94.75;;;54.47;;
47337;SDS011;33069;51.970;5.892;2022-11-20T15:32:01;99.93;;;57.83;;
47337;SDS011;33069;51.970;5.892;2022-11-20T15:34:27;94.00;;;57.53;;
47337;SDS011;33069;51.970;5.892;2022-11-20T15:36:53;83.63;;;52.13;;
47337;SDS011;33069;51.970;5.892;2022-11-20T15:39:19;93.90;;;53.67;;
47337;SDS011;33069;51.970;5.892;2022-11-20T15:41:45;107.18;;;57.78;;
47337;SDS011;33069;51.970;5.892;2022-11-20T15:44:12;96.13;;;54.05;;
47337;SDS011;33069;51.970;5.892;2022-11-20T15:46:39;86.13;;;54.15;;
47337;SDS011;33069;51.970;5.892;2022-11-20T15:49:12;81.43;;;52.25;;
47337;SDS011;33069;51.970;5.892;2022-11-20T15:51:44;94.10;;;56.95;;
47337;SDS011;33069;51.970;5.892;2022-11-20T15:54:21;94.70;;;55.78;;
47337;SDS011;33069;51.970;5.892;2022-11-20T15:56:48;75.13;;;49.63;;
47337;SDS011;33069;51.970;5.892;2022-11-20T15:59:14;105.97;;;59.35;;
47337;SDS011;33069;51.970;5.892;2022-11-20T16:01:41;100.95;;;57.30;;
47337;SDS011;33069;51.970;5.892;2022-11-20T16:04:11;101.18;;;58.72;;
47337;SDS011;33069;51.970;5.892;2022-11-20T16:06:38;108.80;;;61.10;;
47337;SDS011;33069;51.970;5.892;2022-11-20T16:09:04;84.35;;;49.97;;
47337;SDS011;33069;51.970;5.892;2022-11-20T16:11:30;116.88;;;65.03;;
47337;SDS011;33069;51.970;5.892;2022-11-20T16:13:56;93.90;;;55.97;;
47337;SDS011;33069;51.970;5.892;2022-11-20T16:16:52;121.10;;;64.45;;
47337;SDS011;33069;51.970;5.892;2022-11-20T16:19:17;109.15;;;61.70;;
47337;SDS011;33069;51.970;5.892;2022-11-20T16:21:44;101.70;;;56.67;;
47337;SDS011;33069;51.970;5.892;2022-11-20T16:24:10;117.45;;;63.30;;
47337;SDS011;33069;51.970;5.892;2022-11-20T16:26:38;102.80;;;57.45;;